createdAt,value
2023-11-12T00:01:02.738Z,8.82
2023-11-12T00:06:04.949Z,7.82
2023-11-12T00:11:06.899Z,8.23
2023-11-12T00:16:08.840Z,5.78
2023-11-12T00:21:10.644Z,8.13
2023-11-12T00:26:12.424Z,6.20
2023-11-12T00:31:18.334Z,8.55
2023-11-12T00:36:20.830Z,10.48
2023-11-12T00:41:23.075Z,10.82
2023-11-12T00:46:25.402Z,9.57
2023-11-12T00:51:27.333Z,6.40
2023-11-12T00:56:29.297Z,9.90
2023-11-12T01:01:32.248Z,11.35
2023-11-12T01:06:34.792Z,11.10
2023-11-12T01:11:38.501Z,9.32
2023-11-12T01:16:41.534Z,10.30
2023-11-12T01:21:43.437Z,10.95
2023-11-12T01:26:45.236Z,11.90
2023-11-12T01:31:47.649Z,10.55
2023-11-12T01:36:49.964Z,9.35
2023-11-12T01:41:52.270Z,6.80
2023-11-12T01:46:54.091Z,10.20
2023-11-12T01:51:56.039Z,9.10
2023-11-12T01:56:57.913Z,8.75
2023-11-12T02:01:59.889Z,10.73
2023-11-12T02:07:02.890Z,9.93
2023-11-12T02:12:05.398Z,10.35
2023-11-12T02:17:07.690Z,8.23
2023-11-12T02:22:09.694Z,11.32
2023-11-12T02:27:11.623Z,9.10
2023-11-12T02:32:13.520Z,11.05
2023-11-12T02:37:15.502Z,10.00
2023-11-12T02:42:18.389Z,8.02
2023-11-12T02:47:22.479Z,9.18
2023-11-12T02:52:24.442Z,13.52
2023-11-12T02:57:28.325Z,10.00
2023-11-12T03:02:30.347Z,9.52
2023-11-12T03:07:32.212Z,9.23
2023-11-12T03:12:34.224Z,7.50
2023-11-12T03:17:37.885Z,9.82
2023-11-12T03:22:40.318Z,7.88
2023-11-12T03:27:42.216Z,13.55
2023-11-12T03:32:44.051Z,12.85
2023-11-12T03:37:45.906Z,9.27
2023-11-12T03:42:48.226Z,8.55
2023-11-12T03:47:50.095Z,10.52
2023-11-12T03:52:52.915Z,6.95
2023-11-12T03:57:54.767Z,9.23
2023-11-12T04:02:56.768Z,9.25
2023-11-12T04:07:58.732Z,10.48
2023-11-12T04:13:00.723Z,9.98
2023-11-12T04:18:02.544Z,9.65
2023-11-12T04:23:04.397Z,9.98
2023-11-12T04:28:06.574Z,9.93
2023-11-12T04:33:08.565Z,9.18
2023-11-12T04:38:10.430Z,9.35
2023-11-12T04:43:13.724Z,12.27
2023-11-12T04:48:15.586Z,10.55
2023-11-12T04:53:17.831Z,9.85
2023-11-12T04:58:19.639Z,9.90
2023-11-12T05:03:21.694Z,9.13
2023-11-12T05:08:24.287Z,8.90
2023-11-12T05:13:26.910Z,6.82
2023-11-12T05:18:28.885Z,6.90
2023-11-12T05:23:30.755Z,8.15
2023-11-12T05:28:32.560Z,9.60
2023-11-12T05:33:35.510Z,8.10
2023-11-12T05:38:37.368Z,7.38
2023-11-12T05:43:39.291Z,9.30
2023-11-12T05:48:41.137Z,8.32
2023-11-12T05:53:42.956Z,5.70
2023-11-12T05:58:45.240Z,6.53
2023-11-12T06:03:47.181Z,8.40
2023-11-12T06:08:49.143Z,10.90
2023-11-12T06:13:50.975Z,6.63
2023-11-12T06:18:52.856Z,9.77
2023-11-12T06:23:54.667Z,10.73
2023-11-12T06:28:56.481Z,9.02
2023-11-12T06:33:58.436Z,8.07
2023-11-12T06:39:00.240Z,7.72
2023-11-12T06:44:02.064Z,7.55
2023-11-12T06:49:04.508Z,9.18
2023-11-12T06:54:06.501Z,8.32
2023-11-12T06:59:08.366Z,11.52
2023-11-12T07:04:11.804Z,11.57
2023-11-12T07:09:13.980Z,8.43
2023-11-12T07:14:15.798Z,5.25
2023-11-12T07:19:17.607Z,8.48
2023-11-12T07:24:19.639Z,8.20
2023-11-12T07:29:21.543Z,8.00
2023-11-12T07:34:23.464Z,9.38
2023-11-12T07:39:25.394Z,6.28
2023-11-12T07:44:27.276Z,13.25
2023-11-12T07:49:29.168Z,14.57
2023-11-12T07:54:31.000Z,20.50
2023-11-12T07:59:32.839Z,24.48
2023-11-12T08:04:34.673Z,11.32
2023-11-12T08:09:37.501Z,9.23
2023-11-12T08:14:39.567Z,10.85
2023-11-12T08:19:42.086Z,7.60
2023-11-12T08:24:43.874Z,7.32
2023-11-12T08:29:45.732Z,11.82
2023-11-12T08:34:47.511Z,8.73
2023-11-12T08:39:49.699Z,10.82
2023-11-12T08:44:51.702Z,8.63
2023-11-12T08:49:54.722Z,8.60
2023-11-12T08:54:56.611Z,9.98
2023-11-12T08:59:58.591Z,10.75
2023-11-12T09:05:00.681Z,9.35
2023-11-12T09:10:02.535Z,10.93
2023-11-12T09:15:05.685Z,12.25
2023-11-12T09:20:14.592Z,8.68
2023-11-12T09:25:16.609Z,9.60
2023-11-12T09:30:18.533Z,14.52
2023-11-12T09:35:20.338Z,11.95
2023-11-12T09:40:23.260Z,12.15
2023-11-12T09:45:26.988Z,10.73
2023-11-12T09:50:29.239Z,10.25
2023-11-12T09:55:32.114Z,9.45
2023-11-12T10:00:35.954Z,9.00
2023-11-12T10:05:40.227Z,10.90
2023-11-12T10:10:43.077Z,9.88
2023-11-12T10:15:45.167Z,8.13
2023-11-12T10:20:50.612Z,4.88
2023-11-12T10:25:52.466Z,6.57
2023-11-12T10:30:54.817Z,8.30
2023-11-12T10:35:57.177Z,8.75
2023-11-12T10:41:06.648Z,7.18
2023-11-12T10:46:08.647Z,6.28
2023-11-12T10:51:13.395Z,7.07
2023-11-12T10:56:16.879Z,6.75
2023-11-12T11:01:19.338Z,6.75
2023-11-12T11:06:22.663Z,6.97
2023-11-12T11:11:24.870Z,5.78
2023-11-12T11:16:46.342Z,5.82
2023-11-12T11:22:26.526Z,3.67
2023-11-12T11:27:29.512Z,2.95
2023-11-12T11:32:32.879Z,6.13
2023-11-12T11:38:06.971Z,3.03
2023-11-12T11:43:24.002Z,5.32
2023-11-12T11:48:26.545Z,7.47
2023-11-12T11:53:29.075Z,12.80
2023-11-12T11:58:41.497Z,14.05
2023-11-12T12:03:43.694Z,12.45
2023-11-12T12:08:53.290Z,12.77
2023-11-12T12:14:00.272Z,14.52
2023-11-12T12:19:03.720Z,10.30
2023-11-12T12:24:07.226Z,11.40
2023-11-12T12:29:16.688Z,13.00
2023-11-12T12:34:20.592Z,11.93
2023-11-12T12:39:24.611Z,15.15
2023-11-12T12:44:28.811Z,13.73
2023-11-12T12:49:33.711Z,7.90
2023-11-12T12:54:35.620Z,10.27
2023-11-12T12:59:39.078Z,8.10
2023-11-12T13:04:43.120Z,5.38
2023-11-12T13:09:46.338Z,5.15
2023-11-12T13:14:48.530Z,3.15
2023-11-12T13:19:50.680Z,2.05
2023-11-12T13:24:53.484Z,2.92
2023-11-12T13:29:55.340Z,3.20
2023-11-12T13:34:57.201Z,3.40
2023-11-12T13:39:59.462Z,3.53
2023-11-12T13:45:01.937Z,5.68
2023-11-12T13:50:09.146Z,3.50
2023-11-12T13:55:19.682Z,5.07
2023-11-12T14:00:21.752Z,5.75
2023-11-12T14:05:27.863Z,5.47
2023-11-12T14:10:31.729Z,5.93
2023-11-12T14:15:35.068Z,6.85
2023-11-12T14:20:37.406Z,6.40
2023-11-12T14:25:40.787Z,6.13
2023-11-12T14:30:42.630Z,6.97
2023-11-12T14:35:44.503Z,7.20
2023-11-12T14:40:46.534Z,5.85
2023-11-12T14:45:48.667Z,7.95
2023-11-12T14:50:50.591Z,9.38
2023-11-12T14:55:55.322Z,5.82
2023-11-12T15:01:00.775Z,6.95
2023-11-12T15:06:02.623Z,8.18
2023-11-12T15:11:04.881Z,8.73
2023-11-12T15:16:07.348Z,6.05
2023-11-12T15:21:09.323Z,8.23
2023-11-12T15:26:15.078Z,5.85
2023-11-12T15:31:17.138Z,8.48
2023-11-12T15:36:19.258Z,9.23
2023-11-12T15:41:21.273Z,9.40
2023-11-12T15:46:23.236Z,7.82
2023-11-12T15:51:25.092Z,7.78
2023-11-12T15:56:27.422Z,8.73
2023-11-12T16:01:29.953Z,9.80
2023-11-12T16:06:33.394Z,7.80
2023-11-12T16:11:37.163Z,8.23
2023-11-12T16:16:39.110Z,7.45
2023-11-12T16:21:46.534Z,6.30
2023-11-12T16:26:52.760Z,8.15
2023-11-12T16:32:10.115Z,7.93
2023-11-12T16:37:12.128Z,10.35
2023-11-12T16:42:15.886Z,14.60
2023-11-12T16:47:23.896Z,8.90
2023-11-12T16:52:26.094Z,8.95
2023-11-12T16:57:27.887Z,9.80
2023-11-12T17:02:29.876Z,10.30
2023-11-12T17:07:32.024Z,11.00
2023-11-12T17:12:34.171Z,11.30
2023-11-12T17:17:36.389Z,9.13
2023-11-12T17:22:38.748Z,13.18
2023-11-12T17:27:41.016Z,8.60
2023-11-12T17:32:43.003Z,10.93
2023-11-12T17:37:44.939Z,10.68
2023-11-12T17:42:48.119Z,10.93
2023-11-12T17:47:52.298Z,8.68
2023-11-12T17:52:54.220Z,9.63
2023-11-12T17:57:58.113Z,8.55
2023-11-12T18:03:00.447Z,8.93
2023-11-12T18:08:02.564Z,8.60
2023-11-12T18:13:04.945Z,7.22
2023-11-12T18:18:06.883Z,8.30
2023-11-12T18:23:08.734Z,9.43
2023-11-12T18:28:10.648Z,10.60
2023-11-12T18:33:14.116Z,16.83
2023-11-12T18:38:15.910Z,8.63
2023-11-12T18:43:17.727Z,10.50
2023-11-12T18:48:19.659Z,10.38
2023-11-12T18:53:22.731Z,12.52
2023-11-12T18:58:24.700Z,9.52
2023-11-12T19:03:26.757Z,10.65
2023-11-12T19:08:30.073Z,9.52
2023-11-12T19:13:32.004Z,11.05
2023-11-12T19:18:35.957Z,11.15
2023-11-12T19:23:38.406Z,9.23
2023-11-12T19:28:40.262Z,7.60
2023-11-12T19:33:45.717Z,6.53
2023-11-12T19:38:47.543Z,4.97
2023-11-12T19:43:49.342Z,9.45
2023-11-12T19:48:54.175Z,10.00
2023-11-12T19:53:56.281Z,6.25
2023-11-12T19:59:01.330Z,3.78
2023-11-12T20:04:05.594Z,4.40
2023-11-12T20:09:07.709Z,3.38
2023-11-12T20:14:09.564Z,2.17
2023-11-12T20:19:12.241Z,2.42
2023-11-12T20:24:14.628Z,5.47
2023-11-12T20:29:17.383Z,3.08
2023-11-12T20:34:19.232Z,4.50
2023-11-12T20:39:21.526Z,6.15
2023-11-12T20:44:23.487Z,3.25
2023-11-12T20:49:25.279Z,2.97
2023-11-12T20:54:27.064Z,4.38
2023-11-12T20:59:28.948Z,4.93
2023-11-12T21:04:30.898Z,7.63
2023-11-12T21:09:33.494Z,3.85
2023-11-12T21:14:35.429Z,3.33
2023-11-12T21:19:37.337Z,3.33
2023-11-12T21:24:43.620Z,4.95
2023-11-12T21:29:45.547Z,5.60
2023-11-12T21:34:47.631Z,2.17
2023-11-12T21:39:49.513Z,3.28
2023-11-12T21:44:51.374Z,5.22
2023-11-12T21:49:53.228Z,2.92
2023-11-12T21:54:55.115Z,4.95
2023-11-12T21:59:57.138Z,8.93
2023-11-12T22:05:04.216Z,13.27
2023-11-12T22:10:09.319Z,13.75
2023-11-12T22:15:15.099Z,12.15
2023-11-12T22:20:17.120Z,12.52
2023-11-12T22:25:19.004Z,12.30
2023-11-12T22:30:23.365Z,15.13
2023-11-12T22:35:25.499Z,9.07
2023-11-12T22:40:28.496Z,9.52
2023-11-12T22:45:31.016Z,8.10
2023-11-12T22:50:33.257Z,8.48
2023-11-12T22:55:35.944Z,6.20
2023-11-12T23:00:47.221Z,6.80
2023-11-12T23:05:49.843Z,7.57
2023-11-12T23:10:51.826Z,10.93
2023-11-12T23:15:54.809Z,12.40
2023-11-12T23:21:03.339Z,8.68
2023-11-12T23:26:10.948Z,10.70
2023-11-12T23:31:12.929Z,9.10
2023-11-12T23:36:15.272Z,8.52
2023-11-12T23:41:17.180Z,7.30
2023-11-12T23:46:19.188Z,7.47
2023-11-12T23:51:21.089Z,8.45
2023-11-12T23:56:24.248Z,7.22
